»·PEaware :: N3272R KBUR-KLAS

N3272R :: KBUR-KLAS

FLIGHT INFORMATION

Flight Status: Arrived
Operator: Privately registered:
United States
More flights under this callsign
Pilot: Drew S. (16987)
Aircraft: PIPER PA-28R-201 ARROW
(P28R)
More flights by this aircraft type
Origin: KBUR Bob Hope-Burbank
United States
Destination: KLAS McCarran Intl
United States
More flights between these airports :: More routes between these airports
Route: +VNY3 DAG CRESO4
File this flight plan on PilotEdge
Remarks: TEC (I-04 rating)
Altitude:
(Current/Filed)
11,000ft
Speed:
(Current/Filed)
150kts
Departed: 13-Feb-18 11:38 AM
Arrived: 13-Feb-18 01:54 PM
Distance/Time
Traveled:
193nm/2:16
Distance/Time
To Go:
Arrived

Flight Plot

Page will automatically refresh every two minutes.

Flight plan parsing failed; only flown route is shown


Map Options




Map Legend


Flown Route
Filed Route
Departure Airport
Arrival Airport
Navaid (VOR, NDB)
Fix

Horizontal Profiles

Position Reports

Time Latitude Longitude Heading Altitude Ground
Speed
13-Feb-18 11:30 34.200500 -118.365995 182 726ft 0kts
13-Feb-18 11:31 34.200500 -118.365995 182 726ft 0kts
13-Feb-18 11:32 34.200500 -118.365995 182 726ft 0kts
13-Feb-18 11:33 34.200500 -118.365995 182 726ft 0kts
13-Feb-18 11:34 34.200500 -118.365995 182 726ft 0kts
13-Feb-18 11:35 34.200500 -118.365995 182 726ft 0kts
13-Feb-18 11:36 34.200500 -118.365995 182 726ft 0kts
13-Feb-18 11:37 34.200500 -118.365995 182 726ft 0kts
13-Feb-18 11:38 34.199984 -118.366040 176 726ft 15kts
13-Feb-18 11:39 34.198552 -118.369129 194 724ft 2kts
13-Feb-18 11:40 34.198701 -118.369074 207 725ft 0kts
13-Feb-18 11:41 34.198701 -118.369074 207 725ft 0kts
13-Feb-18 11:42 34.198701 -118.369074 207 725ft 0kts
13-Feb-18 11:43 34.198701 -118.369074 207 725ft 0kts
13-Feb-18 11:44 34.198233 -118.368921 134 724ft 20kts
13-Feb-18 11:45 34.195547 -118.344640 133 1223ft 121kts
13-Feb-18 11:46 34.168151 -118.355919 224 1992ft 143kts
13-Feb-18 11:47 34.142077 -118.387112 224 2817ft 146kts
13-Feb-18 11:48 34.140737 -118.420331 339 3520ft 146kts
13-Feb-18 11:49 34.172772 -118.429358 348 4546ft 130kts
13-Feb-18 11:50 34.201809 -118.437567 348 5525ft 123kts
13-Feb-18 11:51 34.229561 -118.445847 348 6450ft 122kts
13-Feb-18 11:52 34.258287 -118.451986 349 7132ft 132kts
13-Feb-18 11:53 34.288651 -118.455212 352 7842ft 134kts
13-Feb-18 11:54 34.319799 -118.457607 352 8494ft 138kts
13-Feb-18 11:55 34.344609 -118.459518 352 8952ft 141kts
13-Feb-18 11:56 34.361721 -118.460860 352 9260ft 142kts
13-Feb-18 11:57 34.387127 -118.462318 359 9677ft 146kts
13-Feb-18 11:58 34.407617 -118.442054 53 10105ft 149kts
13-Feb-18 11:59 34.425036 -118.414095 58 10597ft 147kts
13-Feb-18 12:00 34.442764 -118.382616 58 10945ft 156kts
13-Feb-18 12:01 34.462396 -118.347810 57 10976ft 171kts
13-Feb-18 12:02 34.479125 -118.319075 56 10988ft 171kts
13-Feb-18 12:03 34.495020 -118.293369 56 10986ft 162kts
13-Feb-18 12:04 34.495020 -118.293369 56 10986ft 162kts
13-Feb-18 12:05 34.495020 -118.293369 56 10986ft 162kts
13-Feb-18 12:06 34.495020 -118.293369 56 10986ft 162kts
13-Feb-18 12:07 34.495020 -118.293369 56 10986ft 162kts
13-Feb-18 12:08 34.495020 -118.293369 56 10986ft 162kts
13-Feb-18 12:09 34.495020 -118.293369 56 10986ft 162kts
13-Feb-18 12:10 34.495020 -118.293369 56 10986ft 162kts
13-Feb-18 12:11 34.495020 -118.293369 56 10986ft 162kts
13-Feb-18 12:12 34.495020 -118.293369 56 10986ft 162kts
13-Feb-18 12:13 34.495020 -118.293369 56 10986ft 162kts
13-Feb-18 12:14 34.495020 -118.293369 56 10986ft 162kts
13-Feb-18 12:15 34.495020 -118.293369 56 10986ft 162kts
13-Feb-18 12:16 34.495020 -118.293369 56 10986ft 162kts
13-Feb-18 12:17 34.495020 -118.293369 56 10986ft 162kts
13-Feb-18 12:18 34.495020 -118.293369 56 10986ft 162kts
13-Feb-18 12:19 34.495020 -118.293369 56 10986ft 162kts
13-Feb-18 12:20 34.495020 -118.293369 56 10986ft 162kts
13-Feb-18 12:21 34.495020 -118.293369 56 10986ft 162kts
13-Feb-18 12:22 34.495020 -118.293369 56 10986ft 162kts
13-Feb-18 12:23 34.503909 -118.279564 56 10985ft 159kts
13-Feb-18 12:24 34.520807 -118.253242 56 10990ft 167kts
13-Feb-18 12:25 34.539544 -118.223149 60 10996ft 170kts
13-Feb-18 12:26 34.554344 -118.195968 60 11004ft 171kts
13-Feb-18 12:27 34.569640 -118.167980 59 11011ft 172kts
13-Feb-18 12:28 34.585325 -118.140845 58 11015ft 172kts
13-Feb-18 12:29 34.605203 -118.108723 56 11019ft 172kts
13-Feb-18 12:30 34.627105 -118.062629 78 11012ft 168kts
13-Feb-18 12:31 34.638197 -118.008360 83 11018ft 168kts
13-Feb-18 12:32 34.646017 -117.953001 84 11046ft 168kts
13-Feb-18 12:33 34.653052 -117.898610 85 11014ft 168kts
13-Feb-18 12:34 34.659367 -117.847336 85 11013ft 166kts
13-Feb-18 12:35 34.665059 -117.800989 85 11026ft 167kts
13-Feb-18 12:36 34.672941 -117.760434 65 11036ft 172kts
13-Feb-18 12:37 34.671305 -117.720189 90 11009ft 162kts
13-Feb-18 12:38 34.682499 -117.681640 72 11013ft 164kts
13-Feb-18 12:39 34.694442 -117.643650 72 11027ft 168kts
13-Feb-18 12:40 34.705460 -117.608420 72 11037ft 169kts
13-Feb-18 12:41 34.715985 -117.573545 72 11042ft 174kts
13-Feb-18 12:42 34.726817 -117.537659 72 11059ft 173kts
13-Feb-18 12:43 34.737906 -117.502050 72 11074ft 171kts
13-Feb-18 12:44 34.748587 -117.467855 72 11081ft 169kts
13-Feb-18 12:45 34.759737 -117.431680 73 10995ft 166kts
13-Feb-18 12:46 34.772837 -117.387727 73 10999ft 167kts
13-Feb-18 12:47 34.786655 -117.340439 74 11004ft 169kts
13-Feb-18 12:48 34.795688 -117.308803 81 10999ft 161kts
13-Feb-18 12:49 34.801933 -117.277258 80 11003ft 159kts
13-Feb-18 12:50 34.808325 -117.245103 80 11006ft 158kts
13-Feb-18 12:51 34.814966 -117.211799 80 11008ft 158kts
13-Feb-18 12:52 34.822061 -117.176324 80 11012ft 158kts
13-Feb-18 12:53 34.829726 -117.138103 80 11016ft 158kts
13-Feb-18 12:54 34.839939 -117.087598 80 11020ft 158kts
13-Feb-18 12:55 34.850452 -117.037239 80 11023ft 159kts
13-Feb-18 12:56 34.861103 -116.987833 80 11025ft 160kts
13-Feb-18 12:57 34.873245 -116.938432 64 11027ft 165kts
13-Feb-18 12:58 34.892100 -116.888752 75 11027ft 162kts
13-Feb-18 12:59 34.906087 -116.837355 79 11027ft 160kts
13-Feb-18 13:00 34.918207 -116.785447 80 11027ft 158kts
13-Feb-18 13:01 34.929549 -116.733741 80 11027ft 157kts
13-Feb-18 13:02 34.940372 -116.683155 80 11027ft 156kts
13-Feb-18 13:03 34.950938 -116.633225 80 11028ft 159kts
13-Feb-18 13:04 34.961601 -116.582532 79 11027ft 165kts
13-Feb-18 13:05 34.975762 -116.530536 78 11025ft 165kts
13-Feb-18 13:06 34.988054 -116.481158 56 11024ft 170kts
13-Feb-18 13:07 35.030638 -116.459702 30 11031ft 172kts
13-Feb-18 13:08 35.070886 -116.429758 36 11037ft 169kts
13-Feb-18 13:09 35.108600 -116.397766 40 11036ft 168kts
13-Feb-18 13:10 35.143656 -116.361621 67 11021ft 164kts
13-Feb-18 13:11 35.146740 -116.309246 99 11039ft 160kts
13-Feb-18 13:12 35.140384 -116.255346 99 11035ft 160kts
13-Feb-18 13:13 35.134063 -116.201380 97 11037ft 161kts
13-Feb-18 13:14 35.146867 -116.149713 63 11035ft 164kts
13-Feb-18 13:15 35.169232 -116.100949 63 11037ft 164kts
13-Feb-18 13:16 35.191393 -116.052135 63 11036ft 164kts
13-Feb-18 13:17 35.213525 -116.003236 63 11035ft 164kts
13-Feb-18 13:18 35.235711 -115.954126 63 11036ft 164kts
13-Feb-18 13:19 35.257716 -115.905359 63 11036ft 164kts
13-Feb-18 13:20 35.279246 -115.857573 63 11050ft 164kts
13-Feb-18 13:21 35.299529 -115.812484 63 11052ft 164kts
13-Feb-18 13:22 35.320827 -115.773697 50 11056ft 166kts
13-Feb-18 13:23 35.346616 -115.739318 49 11061ft 166kts
13-Feb-18 13:24 35.373685 -115.703243 49 11070ft 166kts
13-Feb-18 13:25 35.403948 -115.662850 49 11070ft 166kts
13-Feb-18 13:26 35.434918 -115.621481 49 11024ft 166kts
13-Feb-18 13:27 35.466683 -115.578970 49 10230ft 166kts
13-Feb-18 13:28 35.495394 -115.540536 49 10110ft 145kts
13-Feb-18 13:29 35.523423 -115.502974 49 10109ft 152kts
13-Feb-18 13:30 35.537210 -115.484503 50 10106ft 154kts
13-Feb-18 13:31 35.537210 -115.484503 50 10106ft 154kts
13-Feb-18 13:32 35.537210 -115.484503 50 10106ft 154kts
13-Feb-18 13:33 35.537210 -115.484503 50 10106ft 154kts
13-Feb-18 13:34 35.566172 -115.445612 49 10102ft 156kts
13-Feb-18 13:35 35.596334 -115.405060 49 9845ft 167kts
13-Feb-18 13:36 35.627104 -115.363648 49 9414ft 165kts
13-Feb-18 13:37 35.655307 -115.325658 50 8624ft 142kts
13-Feb-18 13:38 35.679306 -115.293314 50 8163ft 119kts
13-Feb-18 13:39 35.700942 -115.264121 50 7691ft 113kts
13-Feb-18 13:40 35.722170 -115.235438 49 7228ft 126kts
13-Feb-18 13:41 35.747724 -115.200869 49 7023ft 142kts
13-Feb-18 13:42 35.773147 -115.166510 48 7022ft 140kts
13-Feb-18 13:43 35.799289 -115.132526 50 7019ft 140kts
13-Feb-18 13:44 35.825008 -115.097497 50 7016ft 139kts
13-Feb-18 13:45 35.850420 -115.062779 51 7014ft 139kts
13-Feb-18 13:46 35.875472 -115.028524 51 7011ft 139kts
13-Feb-18 13:47 35.900435 -114.994364 52 7008ft 139kts
13-Feb-18 13:48 35.920994 -114.966203 52 7006ft 139kts
13-Feb-18 13:49 35.945759 -114.932249 52 7005ft 139kts
13-Feb-18 13:50 35.974375 -114.893004 52 7005ft 139kts
13-Feb-18 13:51 36.004958 -114.876486 321 7003ft 159kts
13-Feb-18 13:52 36.012524 -114.914614 290 7010ft 161kts
13-Feb-18 13:53 36.032718 -114.963893 297 6895ft 167kts
13-Feb-18 13:54 36.040769 -114.997086 286 6823ft 169kts
13-Feb-18 13:55 36.063238 -115.035880 309 6357ft 174kts
13-Feb-18 13:56 36.080927 -115.067571 304 5840ft 172kts
13-Feb-18 13:57 36.083883 -115.111428 266 3752ft 145kts
13-Feb-18 13:58 36.083738 -115.137703 270 3142ft 124kts
13-Feb-18 13:59 36.094135 -115.165522 352 3070ft 127kts
13-Feb-18 14:00 36.101722 -115.155145 208 2219ft 104kts
13-Feb-18 14:01 36.089429 -115.163835 288 2128ft 0kts

Navigation Log

Ident Type
Flight plan parsing failed, navigation log unavailable